sensor_id;sensor_type;location;lat;lon;timestamp;P1;durP1;ratioP1;P2;durP2;ratioP2
22415;SDS011;12204;50.600;4.608;2022-09-03T00:01:53;6.30;;;3.00;;
22415;SDS011;12204;50.600;4.608;2022-09-03T00:07:05;9.10;;;3.10;;
22415;SDS011;12204;50.600;4.608;2022-09-03T00:12:21;6.15;;;2.60;;
22415;SDS011;12204;50.600;4.608;2022-09-03T00:17:31;6.30;;;2.65;;
22415;SDS011;12204;50.600;4.608;2022-09-03T00:22:40;8.98;;;2.70;;
22415;SDS011;12204;50.600;4.608;2022-09-03T00:27:50;6.15;;;2.63;;
22415;SDS011;12204;50.600;4.608;2022-09-03T00:33:02;7.70;;;2.10;;
22415;SDS011;12204;50.600;4.608;2022-09-03T00:38:11;6.18;;;2.10;;
22415;SDS011;12204;50.600;4.608;2022-09-03T00:43:18;6.03;;;2.28;;
22415;SDS011;12204;50.600;4.608;2022-09-03T00:48:45;4.65;;;2.20;;
22415;SDS011;12204;50.600;4.608;2022-09-03T00:54:17;7.97;;;2.15;;
22415;SDS011;12204;50.600;4.608;2022-09-03T00:59:31;5.80;;;2.40;;
22415;SDS011;12204;50.600;4.608;2022-09-03T01:04:53;4.40;;;2.03;;
22415;SDS011;12204;50.600;4.608;2022-09-03T01:10:11;5.57;;;2.03;;
22415;SDS011;12204;50.600;4.608;2022-09-03T01:15:29;5.68;;;2.05;;
22415;SDS011;12204;50.600;4.608;2022-09-03T01:20:48;7.30;;;2.20;;
22415;SDS011;12204;50.600;4.608;2022-09-03T01:26:05;4.85;;;2.00;;
22415;SDS011;12204;50.600;4.608;2022-09-03T01:31:34;4.45;;;2.10;;
22415;SDS011;12204;50.600;4.608;2022-09-03T01:36:51;5.32;;;2.08;;
22415;SDS011;12204;50.600;4.608;2022-09-03T01:42:10;5.68;;;1.88;;
22415;SDS011;12204;50.600;4.608;2022-09-03T01:47:29;6.35;;;2.10;;
22415;SDS011;12204;50.600;4.608;2022-09-03T01:52:53;3.97;;;2.00;;
22415;SDS011;12204;50.600;4.608;2022-09-03T01:58:06;6.68;;;1.90;;
22415;SDS011;12204;50.600;4.608;2022-09-03T02:03:21;6.60;;;2.00;;
22415;SDS011;12204;50.600;4.608;2022-09-03T02:08:28;4.15;;;1.90;;
22415;SDS011;12204;50.600;4.608;2022-09-03T02:13:33;5.38;;;1.75;;
22415;SDS011;12204;50.600;4.608;2022-09-03T02:18:43;5.10;;;2.00;;
22415;SDS011;12204;50.600;4.608;2022-09-03T02:23:51;4.75;;;1.70;;
22415;SDS011;12204;50.600;4.608;2022-09-03T02:28:55;5.07;;;1.60;;
22415;SDS011;12204;50.600;4.608;2022-09-03T02:34:01;5.28;;;2.03;;
22415;SDS011;12204;50.600;4.608;2022-09-03T02:39:05;5.60;;;1.90;;
22415;SDS011;12204;50.600;4.608;2022-09-03T02:44:11;4.50;;;1.70;;
22415;SDS011;12204;50.600;4.608;2022-09-03T02:49:26;8.18;;;1.95;;
22415;SDS011;12204;50.600;4.608;2022-09-03T02:54:30;5.03;;;1.77;;
22415;SDS011;12204;50.600;4.608;2022-09-03T02:59:36;3.80;;;1.90;;
22415;SDS011;12204;50.600;4.608;2022-09-03T03:04:43;5.03;;;1.70;;
22415;SDS011;12204;50.600;4.608;2022-09-03T03:09:47;3.95;;;1.70;;
22415;SDS011;12204;50.600;4.608;2022-09-03T03:14:50;5.03;;;1.80;;
22415;SDS011;12204;50.600;4.608;2022-09-03T03:19:55;6.30;;;1.77;;
22415;SDS011;12204;50.600;4.608;2022-09-03T03:24:59;3.70;;;1.60;;
22415;SDS011;12204;50.600;4.608;2022-09-03T03:30:03;10.60;;;2.22;;
22415;SDS011;12204;50.600;4.608;2022-09-03T03:35:11;5.88;;;1.90;;
22415;SDS011;12204;50.600;4.608;2022-09-03T03:40:15;8.07;;;1.83;;
22415;SDS011;12204;50.600;4.608;2022-09-03T03:45:20;7.28;;;2.08;;
22415;SDS011;12204;50.600;4.608;2022-09-03T03:50:25;5.22;;;1.73;;
22415;SDS011;12204;50.600;4.608;2022-09-03T03:55:29;4.90;;;1.70;;
22415;SDS011;12204;50.600;4.608;2022-09-03T04:00:35;4.82;;;1.92;;
22415;SDS011;12204;50.600;4.608;2022-09-03T04:05:41;3.55;;;1.67;;
22415;SDS011;12204;50.600;4.608;2022-09-03T04:10:49;4.93;;;1.80;;
22415;SDS011;12204;50.600;4.608;2022-09-03T04:15:58;5.33;;;1.90;;
22415;SDS011;12204;50.600;4.608;2022-09-03T04:21:05;7.63;;;1.83;;
22415;SDS011;12204;50.600;4.608;2022-09-03T04:26:12;3.80;;;1.60;;
22415;SDS011;12204;50.600;4.608;2022-09-03T04:31:19;7.90;;;1.70;;
22415;SDS011;12204;50.600;4.608;2022-09-03T04:36:25;5.40;;;1.88;;
22415;SDS011;12204;50.600;4.608;2022-09-03T04:41:31;4.38;;;1.75;;
22415;SDS011;12204;50.600;4.608;2022-09-03T04:46:34;6.60;;;1.80;;
22415;SDS011;12204;50.600;4.608;2022-09-03T04:51:39;3.92;;;1.63;;
22415;SDS011;12204;50.600;4.608;2022-09-03T04:56:43;6.55;;;1.83;;
22415;SDS011;12204;50.600;4.608;2022-09-03T05:01:47;9.20;;;1.70;;
22415;SDS011;12204;50.600;4.608;2022-09-03T05:06:54;6.75;;;1.73;;
22415;SDS011;12204;50.600;4.608;2022-09-03T05:11:58;6.03;;;1.60;;
22415;SDS011;12204;50.600;4.608;2022-09-03T05:17:01;4.03;;;1.70;;
22415;SDS011;12204;50.600;4.608;2022-09-03T05:22:07;6.60;;;1.65;;
22415;SDS011;12204;50.600;4.608;2022-09-03T05:27:10;6.55;;;1.70;;
22415;SDS011;12204;50.600;4.608;2022-09-03T05:32:17;4.87;;;1.67;;
22415;SDS011;12204;50.600;4.608;2022-09-03T05:37:22;6.00;;;1.70;;
22415;SDS011;12204;50.600;4.608;2022-09-03T05:42:25;4.22;;;1.63;;
22415;SDS011;12204;50.600;4.608;2022-09-03T05:47:29;6.88;;;1.60;;
22415;SDS011;12204;50.600;4.608;2022-09-03T05:52:34;4.65;;;1.58;;
22415;SDS011;12204;50.600;4.608;2022-09-03T05:57:38;6.63;;;1.55;;
22415;SDS011;12204;50.600;4.608;2022-09-03T06:02:42;4.70;;;1.65;;
22415;SDS011;12204;50.600;4.608;2022-09-03T06:07:54;4.10;;;1.50;;
22415;SDS011;12204;50.600;4.608;2022-09-03T06:12:58;3.50;;;1.40;;
22415;SDS011;12204;50.600;4.608;2022-09-03T06:18:04;3.40;;;1.50;;
22415;SDS011;12204;50.600;4.608;2022-09-03T06:23:09;6.38;;;1.52;;
22415;SDS011;12204;50.600;4.608;2022-09-03T06:28:13;5.15;;;1.40;;
22415;SDS011;12204;50.600;4.608;2022-09-03T06:33:16;3.63;;;1.48;;
22415;SDS011;12204;50.600;4.608;2022-09-03T06:38:21;3.95;;;1.50;;
22415;SDS011;12204;50.600;4.608;2022-09-03T06:43:25;4.72;;;1.70;;
22415;SDS011;12204;50.600;4.608;2022-09-03T06:48:31;6.50;;;1.55;;
22415;SDS011;12204;50.600;4.608;2022-09-03T06:53:38;5.38;;;1.45;;
22415;SDS011;12204;50.600;4.608;2022-09-03T06:58:46;4.18;;;1.50;;
22415;SDS011;12204;50.600;4.608;2022-09-03T07:03:52;5.50;;;1.55;;
22415;SDS011;12204;50.600;4.608;2022-09-03T07:08:59;6.00;;;1.67;;
22415;SDS011;12204;50.600;4.608;2022-09-03T07:14:03;3.67;;;1.27;;
22415;SDS011;12204;50.600;4.608;2022-09-03T07:19:07;4.65;;;1.40;;
22415;SDS011;12204;50.600;4.608;2022-09-03T07:24:15;5.80;;;1.60;;
22415;SDS011;12204;50.600;4.608;2022-09-03T07:29:20;7.13;;;1.40;;
22415;SDS011;12204;50.600;4.608;2022-09-03T07:34:24;8.05;;;1.60;;
22415;SDS011;12204;50.600;4.608;2022-09-03T07:39:29;8.45;;;1.58;;
22415;SDS011;12204;50.600;4.608;2022-09-03T07:44:34;7.57;;;1.57;;
22415;SDS011;12204;50.600;4.608;2022-09-03T07:49:37;4.53;;;1.60;;
22415;SDS011;12204;50.600;4.608;2022-09-03T07:54:42;6.05;;;1.52;;
22415;SDS011;12204;50.600;4.608;2022-09-03T07:59:46;15.30;;;1.88;;
22415;SDS011;12204;50.600;4.608;2022-09-03T08:04:49;16.08;;;1.80;;
22415;SDS011;12204;50.600;4.608;2022-09-03T08:09:54;9.45;;;1.70;;
22415;SDS011;12204;50.600;4.608;2022-09-03T08:14:58;5.50;;;1.80;;
22415;SDS011;12204;50.600;4.608;2022-09-03T08:20:03;9.63;;;2.10;;
22415;SDS011;12204;50.600;4.608;2022-09-03T08:25:09;6.75;;;2.13;;
22415;SDS011;12204;50.600;4.608;2022-09-03T08:30:14;6.95;;;2.20;;
22415;SDS011;12204;50.600;4.608;2022-09-03T08:35:18;8.93;;;2.30;;
22415;SDS011;12204;50.600;4.608;2022-09-03T08:40:24;6.00;;;2.30;;
22415;SDS011;12204;50.600;4.608;2022-09-03T08:45:27;6.15;;;2.25;;
22415;SDS011;12204;50.600;4.608;2022-09-03T08:50:32;5.85;;;2.50;;
22415;SDS011;12204;50.600;4.608;2022-09-03T08:55:46;6.35;;;2.50;;
22415;SDS011;12204;50.600;4.608;2022-09-03T09:00:55;7.10;;;2.28;;
22415;SDS011;12204;50.600;4.608;2022-09-03T09:06:07;5.95;;;2.60;;
22415;SDS011;12204;50.600;4.608;2022-09-03T09:11:25;6.00;;;2.42;;
22415;SDS011;12204;50.600;4.608;2022-09-03T09:16:45;10.32;;;2.60;;
22415;SDS011;12204;50.600;4.608;2022-09-03T09:21:59;6.18;;;2.83;;
22415;SDS011;12204;50.600;4.608;2022-09-03T09:27:08;6.95;;;2.42;;
22415;SDS011;12204;50.600;4.608;2022-09-03T09:32:18;6.82;;;2.70;;
22415;SDS011;12204;50.600;4.608;2022-09-03T09:37:22;7.07;;;2.70;;
22415;SDS011;12204;50.600;4.608;2022-09-03T09:42:27;10.18;;;3.13;;
22415;SDS011;12204;50.600;4.608;2022-09-03T09:47:33;10.90;;;2.85;;
22415;SDS011;12204;50.600;4.608;2022-09-03T09:52:41;10.60;;;2.80;;
22415;SDS011;12204;50.600;4.608;2022-09-03T09:57:53;6.45;;;2.72;;
22415;SDS011;12204;50.600;4.608;2022-09-03T10:03:14;6.30;;;2.47;;
22415;SDS011;12204;50.600;4.608;2022-09-03T10:08:22;9.65;;;2.70;;
22415;SDS011;12204;50.600;4.608;2022-09-03T10:13:29;8.38;;;2.70;;
22415;SDS011;12204;50.600;4.608;2022-09-03T10:18:42;8.02;;;2.60;;
22415;SDS011;12204;50.600;4.608;2022-09-03T10:23:53;7.80;;;2.85;;
22415;SDS011;12204;50.600;4.608;2022-09-03T10:29:09;7.05;;;2.80;;
22415;SDS011;12204;50.600;4.608;2022-09-03T10:34:17;8.05;;;2.80;;
22415;SDS011;12204;50.600;4.608;2022-09-03T10:39:40;8.15;;;3.10;;
22415;SDS011;12204;50.600;4.608;2022-09-03T10:45:10;8.50;;;4.50;;
22415;SDS011;12204;50.600;4.608;2022-09-03T10:50:22;14.90;;;6.05;;
22415;SDS011;12204;50.600;4.608;2022-09-03T10:55:34;41.17;;;15.25;;
22415;SDS011;12204;50.600;4.608;2022-09-03T11:00:51;56.95;;;21.10;;
22415;SDS011;12204;50.600;4.608;2022-09-03T11:06:01;45.08;;;17.75;;
22415;SDS011;12204;50.600;4.608;2022-09-03T11:11:12;30.90;;;13.32;;
22415;SDS011;12204;50.600;4.608;2022-09-03T11:16:24;28.35;;;11.65;;
22415;SDS011;12204;50.600;4.608;2022-09-03T11:21:34;26.23;;;11.35;;
22415;SDS011;12204;50.600;4.608;2022-09-03T11:26:42;21.38;;;9.35;;
22415;SDS011;12204;50.600;4.608;2022-09-03T11:31:52;18.13;;;7.40;;
22415;SDS011;12204;50.600;4.608;2022-09-03T11:37:06;18.25;;;7.18;;
22415;SDS011;12204;50.600;4.608;2022-09-03T11:42:29;15.43;;;6.65;;
22415;SDS011;12204;50.600;4.608;2022-09-03T11:47:39;13.90;;;6.38;;
22415;SDS011;12204;50.600;4.608;2022-09-03T11:52:45;14.48;;;5.65;;
22415;SDS011;12204;50.600;4.608;2022-09-03T11:57:52;12.52;;;5.35;;
22415;SDS011;12204;50.600;4.608;2022-09-03T12:03:00;12.05;;;5.30;;
22415;SDS011;12204;50.600;4.608;2022-09-03T12:08:11;9.93;;;4.47;;
22415;SDS011;12204;50.600;4.608;2022-09-03T12:13:52;10.90;;;4.50;;
22415;SDS011;12204;50.600;4.608;2022-09-03T12:19:07;9.30;;;4.20;;
22415;SDS011;12204;50.600;4.608;2022-09-03T12:24:24;8.63;;;4.28;;
22415;SDS011;12204;50.600;4.608;2022-09-03T12:29:38;11.52;;;4.15;;
22415;SDS011;12204;50.600;4.608;2022-09-03T12:35:08;12.10;;;4.03;;
22415;SDS011;12204;50.600;4.608;2022-09-03T12:40:39;8.40;;;3.60;;
22415;SDS011;12204;50.600;4.608;2022-09-03T12:46:12;7.43;;;3.60;;
22415;SDS011;12204;50.600;4.608;2022-09-03T12:51:18;6.63;;;3.53;;
22415;SDS011;12204;50.600;4.608;2022-09-03T12:56:44;11.13;;;3.70;;
22415;SDS011;12204;50.600;4.608;2022-09-03T13:01:57;9.27;;;3.70;;
22415;SDS011;12204;50.600;4.608;2022-09-03T13:07:11;8.27;;;3.70;;
22415;SDS011;12204;50.600;4.608;2022-09-03T13:12:30;9.70;;;3.67;;
22415;SDS011;12204;50.600;4.608;2022-09-03T13:17:42;6.28;;;3.20;;
22415;SDS011;12204;50.600;4.608;2022-09-03T13:23:27;5.65;;;3.03;;
22415;SDS011;12204;50.600;4.608;2022-09-03T13:28:50;7.68;;;3.30;;
22415;SDS011;12204;50.600;4.608;2022-09-03T13:34:19;6.00;;;2.72;;
22415;SDS011;12204;50.600;4.608;2022-09-03T13:39:31;6.22;;;2.70;;
22415;SDS011;12204;50.600;4.608;2022-09-03T13:44:44;5.82;;;2.78;;
22415;SDS011;12204;50.600;4.608;2022-09-03T13:49:53;6.53;;;2.58;;
22415;SDS011;12204;50.600;4.608;2022-09-03T13:55:28;5.88;;;2.80;;
22415;SDS011;12204;50.600;4.608;2022-09-03T14:00:39;4.93;;;2.70;;
22415;SDS011;12204;50.600;4.608;2022-09-03T14:05:54;6.07;;;2.80;;
22415;SDS011;12204;50.600;4.608;2022-09-03T14:11:18;4.68;;;2.50;;
22415;SDS011;12204;50.600;4.608;2022-09-03T14:16:33;5.38;;;2.70;;
22415;SDS011;12204;50.600;4.608;2022-09-03T14:21:45;4.28;;;2.28;;
22415;SDS011;12204;50.600;4.608;2022-09-03T14:26:58;4.70;;;2.38;;
22415;SDS011;12204;50.600;4.608;2022-09-03T14:32:11;6.15;;;2.42;;
22415;SDS011;12204;50.600;4.608;2022-09-03T14:37:43;6.10;;;2.55;;
22415;SDS011;12204;50.600;4.608;2022-09-03T14:43:17;5.55;;;2.35;;
22415;SDS011;12204;50.600;4.608;2022-09-03T14:49:03;7.45;;;2.35;;
22415;SDS011;12204;50.600;4.608;2022-09-03T14:54:49;4.50;;;2.50;;
22415;SDS011;12204;50.600;4.608;2022-09-03T15:00:29;5.78;;;2.53;;
22415;SDS011;12204;50.600;4.608;2022-09-03T15:05:41;5.25;;;2.60;;
22415;SDS011;12204;50.600;4.608;2022-09-03T15:10:56;5.47;;;2.35;;
22415;SDS011;12204;50.600;4.608;2022-09-03T15:21:25;4.38;;;1.60;;
22415;SDS011;12204;50.600;4.608;2022-09-03T15:27:05;5.78;;;1.70;;
22415;SDS011;12204;50.600;4.608;2022-09-03T15:32:55;4.63;;;1.63;;
22415;SDS011;12204;50.600;4.608;2022-09-03T15:38:18;4.85;;;1.77;;
22415;SDS011;12204;50.600;4.608;2022-09-03T15:43:41;6.68;;;2.17;;
22415;SDS011;12204;50.600;4.608;2022-09-03T15:48:55;5.75;;;1.73;;
22415;SDS011;12204;50.600;4.608;2022-09-03T15:54:06;6.75;;;1.75;;
22415;SDS011;12204;50.600;4.608;2022-09-03T15:59:20;5.10;;;1.88;;
22415;SDS011;12204;50.600;4.608;2022-09-03T16:04:38;5.47;;;1.60;;
22415;SDS011;12204;50.600;4.608;2022-09-03T16:10:07;5.82;;;1.90;;
22415;SDS011;12204;50.600;4.608;2022-09-03T16:15:26;3.95;;;1.77;;
22415;SDS011;12204;50.600;4.608;2022-09-03T16:20:40;5.13;;;1.70;;
22415;SDS011;12204;50.600;4.608;2022-09-03T16:25:48;5.68;;;1.70;;
22415;SDS011;12204;50.600;4.608;2022-09-03T16:31:03;4.40;;;1.80;;
22415;SDS011;12204;50.600;4.608;2022-09-03T16:36:22;6.07;;;1.90;;
22415;SDS011;12204;50.600;4.608;2022-09-03T16:41:42;4.22;;;1.67;;
22415;SDS011;12204;50.600;4.608;2022-09-03T16:46:59;3.40;;;1.60;;
22415;SDS011;12204;50.600;4.608;2022-09-03T16:52:17;4.13;;;1.60;;
22415;SDS011;12204;50.600;4.608;2022-09-03T16:57:47;3.90;;;1.67;;
22415;SDS011;12204;50.600;4.608;2022-09-03T17:09:04;4.03;;;1.80;;
22415;SDS011;12204;50.600;4.608;2022-09-03T17:14:36;8.85;;;1.95;;
22415;SDS011;12204;50.600;4.608;2022-09-03T17:20:13;7.32;;;2.03;;
22415;SDS011;12204;50.600;4.608;2022-09-03T17:25:27;8.02;;;1.73;;
22415;SDS011;12204;50.600;4.608;2022-09-03T17:30:39;6.30;;;1.58;;
22415;SDS011;12204;50.600;4.608;2022-09-03T17:35:51;13.10;;;1.80;;
22415;SDS011;12204;50.600;4.608;2022-09-03T17:41:11;7.20;;;1.60;;
22415;SDS011;12204;50.600;4.608;2022-09-03T17:46:26;5.70;;;1.80;;
22415;SDS011;12204;50.600;4.608;2022-09-03T17:51:40;6.30;;;1.80;;
22415;SDS011;12204;50.600;4.608;2022-09-03T17:56:53;5.78;;;1.70;;
22415;SDS011;12204;50.600;4.608;2022-09-03T18:02:07;6.55;;;1.52;;
22415;SDS011;12204;50.600;4.608;2022-09-03T18:07:31;6.05;;;1.98;;
22415;SDS011;12204;50.600;4.608;2022-09-03T18:12:47;6.53;;;1.90;;
22415;SDS011;12204;50.600;4.608;2022-09-03T18:18:06;7.65;;;1.90;;
22415;SDS011;12204;50.600;4.608;2022-09-03T18:23:20;3.55;;;1.73;;
22415;SDS011;12204;50.600;4.608;2022-09-03T18:28:53;3.67;;;1.60;;
22415;SDS011;12204;50.600;4.608;2022-09-03T18:34:28;3.60;;;1.60;;
22415;SDS011;12204;50.600;4.608;2022-09-03T18:39:52;3.78;;;1.38;;
22415;SDS011;12204;50.600;4.608;2022-09-03T18:45:17;6.72;;;2.00;;
22415;SDS011;12204;50.600;4.608;2022-09-03T18:51:17;8.25;;;2.40;;
22415;SDS011;12204;50.600;4.608;2022-09-03T18:56:50;8.65;;;2.90;;
22415;SDS011;12204;50.600;4.608;2022-09-03T19:02:17;8.43;;;2.67;;
22415;SDS011;12204;50.600;4.608;2022-09-03T19:07:54;7.55;;;2.67;;
22415;SDS011;12204;50.600;4.608;2022-09-03T19:13:26;8.23;;;2.50;;
22415;SDS011;12204;50.600;4.608;2022-09-03T19:19:03;7.32;;;2.47;;
22415;SDS011;12204;50.600;4.608;2022-09-03T19:25:01;8.27;;;2.30;;
22415;SDS011;12204;50.600;4.608;2022-09-03T19:30:28;7.60;;;2.50;;
22415;SDS011;12204;50.600;4.608;2022-09-03T19:36:04;6.93;;;2.30;;
22415;SDS011;12204;50.600;4.608;2022-09-03T19:41:36;7.18;;;2.45;;
22415;SDS011;12204;50.600;4.608;2022-09-03T19:47:07;8.75;;;2.70;;
22415;SDS011;12204;50.600;4.608;2022-09-03T19:52:35;8.13;;;2.67;;
22415;SDS011;12204;50.600;4.608;2022-09-03T19:58:07;8.20;;;2.63;;
22415;SDS011;12204;50.600;4.608;2022-09-03T20:03:44;6.07;;;2.47;;
22415;SDS011;12204;50.600;4.608;2022-09-03T20:09:08;5.82;;;2.90;;
22415;SDS011;12204;50.600;4.608;2022-09-03T20:14:29;6.28;;;2.55;;
22415;SDS011;12204;50.600;4.608;2022-09-03T20:19:39;6.13;;;3.00;;
22415;SDS011;12204;50.600;4.608;2022-09-03T20:25:06;7.78;;;2.92;;
22415;SDS011;12204;50.600;4.608;2022-09-03T20:30:40;5.72;;;2.70;;
22415;SDS011;12204;50.600;4.608;2022-09-03T20:35:58;6.28;;;3.00;;
22415;SDS011;12204;50.600;4.608;2022-09-03T20:41:19;6.50;;;2.90;;
22415;SDS011;12204;50.600;4.608;2022-09-03T20:46:37;6.35;;;3.30;;
22415;SDS011;12204;50.600;4.608;2022-09-03T20:51:59;7.25;;;3.40;;
22415;SDS011;12204;50.600;4.608;2022-09-03T20:57:22;6.45;;;3.42;;
22415;SDS011;12204;50.600;4.608;2022-09-03T21:02:58;6.32;;;3.10;;
22415;SDS011;12204;50.600;4.608;2022-09-03T21:08:18;7.50;;;3.60;;
22415;SDS011;12204;50.600;4.608;2022-09-03T21:14:00;6.38;;;3.60;;
22415;SDS011;12204;50.600;4.608;2022-09-03T21:19:23;7.60;;;3.70;;
22415;SDS011;12204;50.600;4.608;2022-09-03T21:24:46;7.32;;;3.97;;
22415;SDS011;12204;50.600;4.608;2022-09-03T21:29:59;20.90;;;4.43;;
22415;SDS011;12204;50.600;4.608;2022-09-03T21:35:11;15.10;;;4.07;;
22415;SDS011;12204;50.600;4.608;2022-09-03T21:40:25;15.88;;;3.83;;
22415;SDS011;12204;50.600;4.608;2022-09-03T21:45:35;13.60;;;4.18;;
22415;SDS011;12204;50.600;4.608;2022-09-03T21:50:48;16.95;;;4.20;;
22415;SDS011;12204;50.600;4.608;2022-09-03T21:56:05;7.35;;;4.10;;
22415;SDS011;12204;50.600;4.608;2022-09-03T22:02:05;14.48;;;5.00;;
22415;SDS011;12204;50.600;4.608;2022-09-03T22:07:20;17.50;;;6.03;;
22415;SDS011;12204;50.600;4.608;2022-09-03T22:12:41;12.18;;;7.60;;
22415;SDS011;12204;50.600;4.608;2022-09-03T22:18:00;13.03;;;7.70;;
22415;SDS011;12204;50.600;4.608;2022-09-03T22:23:16;14.52;;;8.77;;
22415;SDS011;12204;50.600;4.608;2022-09-03T22:28:25;13.77;;;8.25;;
22415;SDS011;12204;50.600;4.608;2022-09-03T22:33:43;14.32;;;8.93;;
22415;SDS011;12204;50.600;4.608;2022-09-03T22:39:02;13.82;;;8.35;;
22415;SDS011;12204;50.600;4.608;2022-09-03T22:44:22;11.48;;;6.57;;
22415;SDS011;12204;50.600;4.608;2022-09-03T22:49:53;10.27;;;5.93;;
22415;SDS011;12204;50.600;4.608;2022-09-03T22:55:13;12.68;;;6.28;;
22415;SDS011;12204;50.600;4.608;2022-09-03T23:00:21;10.35;;;5.57;;
22415;SDS011;12204;50.600;4.608;2022-09-03T23:05:31;10.60;;;5.47;;
22415;SDS011;12204;50.600;4.608;2022-09-03T23:10:47;8.95;;;4.95;;
22415;SDS011;12204;50.600;4.608;2022-09-03T23:16:04;9.02;;;4.45;;
22415;SDS011;12204;50.600;4.608;2022-09-03T23:21:19;7.95;;;3.83;;
22415;SDS011;12204;50.600;4.608;2022-09-03T23:26:40;9.27;;;4.10;;
22415;SDS011;12204;50.600;4.608;2022-09-03T23:31:49;8.63;;;3.60;;
22415;SDS011;12204;50.600;4.608;2022-09-03T23:37:02;9.57;;;3.38;;
22415;SDS011;12204;50.600;4.608;2022-09-03T23:42:39;9.13;;;3.20;;
22415;SDS011;12204;50.600;4.608;2022-09-03T23:48:15;8.02;;;3.08;;
22415;SDS011;12204;50.600;4.608;2022-09-03T23:53:37;6.75;;;3.00;;
22415;SDS011;12204;50.600;4.608;2022-09-03T23:58:56;7.00;;;3.10;;
